Time;durP1;ratioP1;P1;durP2;ratioP2;P2;SDS_P1;SDS_P2;PMS_P1;PMS_P2;Temp;Humidity;BMP_temperature;BMP_pressure;BME280_temperature;BME280_humidity;BME280_pressure;Samples;Min_cycle;Max_cycle;Signal;HPM_P1;HPM_P2
2021/12/23 03:35:00;;;;;;;31.83;14.93;;;2.20;99.90;;;;;;5055030;23;20100;-90
2021/12/23 03:37:26;;;;;;;27.47;13.90;;;2.20;99.90;;;;;;5017287;28;20026;-88
2021/12/23 03:39:53;;;;;;;26.50;13.37;;;2.20;99.90;;;;;;5016541;28;20402;-88
2021/12/23 03:42:20;;;;;;;26.77;13.27;;;2.10;99.90;;;;;;5033643;28;20025;-89
2021/12/23 03:44:47;;;;;;;24.13;13.23;;;2.20;99.90;;;;;;5000718;28;20030;-88
2021/12/23 03:47:13;;;;;;;26.37;13.47;;;2.20;99.90;;;;;;5000620;28;20025;-89
2021/12/23 03:49:40;;;;;;;23.50;12.97;;;2.10;99.90;;;;;;5000340;28;20032;-88
2021/12/23 03:52:06;;;;;;;23.87;13.73;;;2.10;99.90;;;;;;5000348;28;20030;-89
2021/12/23 03:54:31;;;;;;;24.00;13.97;;;2.20;99.90;;;;;;5000399;28;20037;-89
2021/12/23 03:56:57;;;;;;;24.87;13.07;;;2.10;99.90;;;;;;5000163;28;20562;-89
2021/12/23 03:59:23;;;;;;;25.47;13.27;;;2.10;99.90;;;;;;4999958;28;20041;-90
2021/12/23 04:01:49;;;;;;;25.63;13.50;;;2.10;99.90;;;;;;5000024;28;20087;-90
2021/12/23 04:04:15;;;;;;;26.60;13.63;;;2.20;99.90;;;;;;5016244;28;20037;-88
2021/12/23 04:06:41;;;;;;;25.73;13.93;;;2.10;99.90;;;;;;5000133;28;20037;-89
2021/12/23 04:09:06;;;;;;;26.73;13.83;;;2.10;99.90;;;;;;5000003;28;20052;-89
2021/12/23 04:11:32;;;;;;;26.30;13.10;;;2.10;99.90;;;;;;4999974;28;20119;-89
2021/12/23 04:13:58;;;;;;;24.77;14.33;;;2.00;99.90;;;;;;4999821;28;20033;-89
2021/12/23 04:16:24;;;;;;;24.47;13.30;;;2.10;99.90;;;;;;4999868;28;20037;-89
2021/12/23 04:18:51;;;;;;;26.03;14.07;;;2.00;99.90;;;;;;4999690;28;20034;-88
2021/12/23 04:21:18;;;;;;;27.20;14.43;;;1.90;99.90;;;;;;4999876;28;20480;-89
2021/12/23 04:23:44;;;;;;;25.57;13.63;;;2.00;99.90;;;;;;4999650;28;20025;-90
2021/12/23 04:26:11;;;;;;;25.70;13.87;;;2.00;99.90;;;;;;4999863;28;20034;-89
2021/12/23 04:28:45;;;;;;;25.43;13.70;;;2.10;99.90;;;;;;4999632;28;20029;-88
2021/12/23 04:31:17;;;;;;;27.93;14.97;;;2.00;99.90;;;;;;4999661;28;20029;-88
2021/12/23 04:33:44;;;;;;;27.00;14.20;;;2.00;99.90;;;;;;4999676;28;20459;-89
2021/12/23 04:36:10;;;;;;;27.27;14.13;;;2.00;99.90;;;;;;4999954;28;20116;-89
2021/12/23 04:38:38;;;;;;;27.30;14.13;;;2.00;99.90;;;;;;4999466;28;20030;-89
2021/12/23 04:41:04;;;;;;;29.03;14.00;;;2.00;99.90;;;;;;4999510;28;20116;-89
2021/12/23 04:43:30;;;;;;;25.67;13.53;;;2.00;99.90;;;;;;4999352;28;20036;-89
2021/12/23 04:45:56;;;;;;;26.30;14.43;;;2.00;99.90;;;;;;4999451;28;20068;-89
2021/12/23 04:48:22;;;;;;;24.53;13.43;;;1.90;99.90;;;;;;4999268;28;20037;-89
2021/12/23 04:50:48;;;;;;;28.97;15.40;;;2.00;99.90;;;;;;4998844;28;20030;-89
2021/12/23 04:53:14;;;;;;;27.00;14.83;;;2.00;99.90;;;;;;4999151;28;20033;-89
2021/12/23 04:55:40;;;;;;;29.20;14.83;;;2.00;99.90;;;;;;5015637;28;20506;-89
2021/12/23 04:58:05;;;;;;;28.77;14.60;;;2.00;99.90;;;;;;4999164;28;20038;-89
2021/12/23 05:00:31;;;;;;;26.53;15.37;;;2.00;99.90;;;;;;4999309;28;20030;-89
2021/12/23 05:02:57;;;;;;;32.53;16.87;;;1.90;99.90;;;;;;4999315;28;20032;-89
2021/12/23 05:05:23;;;;;;;28.03;15.60;;;1.90;99.90;;;;;;5015316;28;20033;-89
2021/12/23 05:07:49;;;;;;;28.10;14.90;;;1.90;99.90;;;;;;4999126;28;20025;-90
2021/12/23 05:10:16;;;;;;;29.37;15.43;;;1.90;99.90;;;;;;4999149;28;20037;-89
2021/12/23 05:12:44;;;;;;;30.67;16.77;;;1.90;99.90;;;;;;4999040;28;20021;-88
2021/12/23 05:15:12;;;;;;;27.43;14.60;;;1.90;99.90;;;;;;4998891;28;20032;-88
2021/12/23 05:17:38;;;;;;;26.23;14.97;;;1.90;99.90;;;;;;4998908;28;20065;-88
2021/12/23 05:20:06;;;;;;;27.70;14.60;;;1.90;99.90;;;;;;4998741;28;20064;-88
2021/12/23 05:22:32;;;;;;;25.80;15.27;;;1.90;99.90;;;;;;4999051;28;20057;-89
2021/12/23 05:24:58;;;;;;;30.50;15.13;;;1.90;99.90;;;;;;4998842;28;20472;-89
2021/12/23 05:27:24;;;;;;;31.50;16.20;;;2.00;99.90;;;;;;4998811;28;20036;-89
2021/12/23 05:29:50;;;;;;;31.90;16.10;;;2.00;99.90;;;;;;4998938;28;20037;-88
2021/12/23 05:32:16;;;;;;;31.23;15.73;;;2.00;99.90;;;;;;4998711;28;20124;-89
2021/12/23 05:34:42;;;;;;;29.60;15.80;;;2.00;99.90;;;;;;4998598;28;20072;-89
2021/12/23 05:37:08;;;;;;;29.03;15.17;;;2.00;99.90;;;;;;4998611;28;20036;-90
2021/12/23 05:39:34;;;;;;;28.03;14.67;;;2.00;99.90;;;;;;4998692;28;20033;-89
2021/12/23 05:42:00;;;;;;;28.67;15.20;;;2.00;99.90;;;;;;4998780;28;20033;-88
2021/12/23 05:44:26;;;;;;;26.43;14.97;;;2.00;99.90;;;;;;4998839;28;20057;-90
2021/12/23 05:46:53;;;;;;;32.00;15.63;;;2.00;99.90;;;;;;5015203;28;20025;-88
2021/12/23 05:49:19;;;;;;;29.03;15.30;;;2.10;99.90;;;;;;5015201;28;20484;-89
2021/12/23 05:51:46;;;;;;;32.77;15.83;;;2.00;99.90;;;;;;4998837;28;20037;-89
2021/12/23 05:54:12;;;;;;;27.30;14.80;;;2.00;99.90;;;;;;4998567;28;20030;-88
2021/12/23 05:56:37;;;;;;;32.07;16.03;;;2.00;99.90;;;;;;5014841;28;20117;-89
2021/12/23 05:59:04;;;;;;;28.33;15.20;;;2.00;99.90;;;;;;4999021;28;20066;-89
2021/12/23 06:01:31;;;;;;;29.00;15.33;;;2.00;99.90;;;;;;4998500;28;20037;-89
2021/12/23 06:03:57;;;;;;;35.33;16.80;;;2.00;99.90;;;;;;5001292;28;20113;-89
2021/12/23 06:06:23;;;;;;;28.70;14.63;;;2.00;99.90;;;;;;5002772;28;20034;-89
2021/12/23 06:08:50;;;;;;;28.87;15.90;;;2.00;99.90;;;;;;5002656;28;20124;-88
2021/12/23 06:11:17;;;;;;;29.03;15.00;;;2.00;99.90;;;;;;5002871;28;20112;-88
2021/12/23 06:13:42;;;;;;;29.13;15.67;;;2.00;99.90;;;;;;5002452;28;20029;-89
2021/12/23 06:16:09;;;;;;;29.93;15.83;;;2.00;99.90;;;;;;5002674;28;20120;-88
2021/12/23 06:18:35;;;;;;;31.43;16.13;;;2.00;99.90;;;;;;5002450;28;20029;-88
2021/12/23 06:21:02;;;;;;;31.90;16.40;;;2.10;99.90;;;;;;5002507;28;20124;-89
2021/12/23 06:23:30;;;;;;;25.43;14.80;;;2.00;99.90;;;;;;5002184;28;20036;-89
2021/12/23 06:25:56;;;;;;;30.53;16.03;;;2.10;99.90;;;;;;5002718;28;20032;-89
2021/12/23 06:28:22;;;;;;;29.43;15.63;;;2.10;99.90;;;;;;5002598;28;20033;-89
2021/12/23 06:30:49;;;;;;;26.07;14.70;;;2.10;99.90;;;;;;5004760;28;20031;-89
2021/12/23 06:33:15;;;;;;;30.37;15.63;;;2.10;99.90;;;;;;5006743;28;20030;-89
2021/12/23 06:35:42;;;;;;;31.97;15.80;;;2.10;99.90;;;;;;5006239;28;20025;-90
2021/12/23 06:38:10;;;;;;;28.50;15.27;;;2.10;99.90;;;;;;5005724;28;20507;-90
2021/12/23 06:40:37;;;;;;;28.70;15.23;;;2.10;99.90;;;;;;5005557;28;20029;-90
2021/12/23 06:43:03;;;;;;;28.23;15.10;;;2.00;99.90;;;;;;5002428;28;20028;-89
2021/12/23 06:45:29;;;;;;;30.10;15.23;;;2.10;99.90;;;;;;5002253;28;20076;-89
2021/12/23 06:47:55;;;;;;;32.70;16.73;;;2.10;99.90;;;;;;5001767;28;20472;-89
2021/12/23 06:50:22;;;;;;;31.57;16.03;;;2.10;99.90;;;;;;5002819;28;20025;-89
2021/12/23 06:52:51;;;;;;;31.80;17.40;;;2.10;99.90;;;;;;5001468;28;20392;-89
2021/12/23 06:55:18;;;;;;;30.17;15.98;;;2.10;99.90;;;;;;5002094;28;20160;-89
2021/12/23 06:57:53;;;;;;;29.43;15.97;;;2.10;99.90;;;;;;5001580;28;20046;-89
2021/12/23 07:00:24;;;;;;;27.97;14.53;;;2.10;99.90;;;;;;5017564;28;20089;-89
2021/12/23 07:02:53;;;;;;;30.90;15.97;;;2.10;99.90;;;;;;5001362;28;20053;-89
2021/12/23 07:05:19;;;;;;;27.77;14.83;;;2.20;99.90;;;;;;5017744;28;20127;-89
2021/12/23 07:07:57;;;;;;;28.60;15.20;;;2.20;99.90;;;;;;5001454;28;20033;-89
2021/12/23 07:10:28;;;;;;;28.97;15.07;;;2.10;99.90;;;;;;5001417;28;20053;-89
2021/12/23 07:12:55;;;;;;;29.17;15.37;;;2.10;99.90;;;;;;5001430;28;20033;-89
2021/12/23 07:15:23;;;;;;;31.53;15.90;;;2.10;99.90;;;;;;5001198;28;20037;-90
2021/12/23 07:17:49;;;;;;;29.70;16.20;;;2.20;99.90;;;;;;5002009;28;20033;-88
2021/12/23 07:20:15;;;;;;;30.10;16.07;;;2.10;99.90;;;;;;5005158;28;20030;-91
2021/12/23 07:22:44;;;;;;;27.57;15.33;;;2.20;99.90;;;;;;5025489;28;20029;-93
2021/12/23 07:25:12;;;;;;;29.05;15.27;;;2.10;99.90;;;;;;5024546;28;20013;-93
2021/12/23 07:27:39;;;;;;;29.90;15.10;;;2.10;99.90;;;;;;5024051;28;20033;-91
2021/12/23 07:30:07;;;;;;;28.73;15.40;;;2.10;99.90;;;;;;5020487;28;20056;-91
2021/12/23 07:32:33;;;;;;;28.40;14.87;;;2.10;99.90;;;;;;5002415;28;20025;-89
2021/12/23 07:34:58;;;;;;;27.13;14.73;;;2.10;99.90;;;;;;5001711;28;20034;-89
2021/12/23 07:37:24;;;;;;;27.80;15.33;;;2.10;99.90;;;;;;5001821;28;20035;-89
2021/12/23 07:39:54;;;;;;;30.07;15.93;;;2.10;99.90;;;;;;5003181;28;20033;-91
2021/12/23 07:42:25;;;;;;;32.43;15.20;;;2.10;99.90;;;;;;5002857;28;20041;-89
2021/12/23 07:44:51;;;;;;;28.10;15.13;;;2.10;99.90;;;;;;5001464;28;20029;-88
2021/12/23 07:47:17;;;;;;;32.80;16.07;;;2.10;99.90;;;;;;5003166;28;20092;-89
2021/12/23 07:49:44;;;;;;;27.07;15.40;;;2.10;99.90;;;;;;5024851;28;20101;-90
2021/12/23 07:52:11;;;;;;;30.77;15.07;;;2.10;99.90;;;;;;5024006;28;20033;-91
2021/12/23 07:54:38;;;;;;;31.87;16.33;;;2.10;99.90;;;;;;5022454;28;20034;-89
2021/12/23 07:57:04;;;;;;;29.60;15.63;;;2.20;99.90;;;;;;5023193;28;20017;-92
2021/12/23 07:59:30;;;;;;;30.33;16.23;;;2.20;99.90;;;;;;5022607;28;20037;-90
2021/12/23 08:01:57;;;;;;;28.77;15.50;;;2.10;99.90;;;;;;5009554;28;20087;-88
2021/12/23 08:04:33;;;;;;;30.73;16.03;;;2.10;99.90;;;;;;5001455;28;20056;-89
2021/12/23 08:07:04;;;;;;;30.00;15.30;;;2.20;99.90;;;;;;5017359;28;20053;-89
2021/12/23 08:09:32;;;;;;;33.07;15.83;;;2.10;99.90;;;;;;5001773;28;20388;-90
2021/12/23 08:12:00;;;;;;;28.13;15.57;;;2.20;99.90;;;;;;5017319;28;20483;-90
2021/12/23 08:14:26;;;;;;;27.80;15.13;;;2.20;99.90;;;;;;5000621;28;20040;-90
2021/12/23 08:16:54;;;;;;;50.90;19.97;;;2.20;99.90;;;;;;5001324;28;20057;-89
2021/12/23 08:19:20;;;;;;;89.47;21.90;;;2.20;99.90;;;;;;5016238;28;20048;-90
2021/12/23 08:21:48;;;;;;;62.13;19.23;;;2.20;99.90;;;;;;5000782;28;20029;-89
2021/12/23 08:24:14;;;;;;;30.73;15.77;;;2.20;99.90;;;;;;4999717;28;20033;-89
2021/12/23 08:26:50;;;;;;;33.87;16.23;;;2.30;99.90;;;;;;5015127;28;20034;-89
2021/12/23 08:29:21;;;;;;;161.50;29.47;;;2.20;99.90;;;;;;5000384;28;20025;-89
2021/12/23 08:31:53;;;;;;;84.97;20.70;;;2.20;99.90;;;;;;5000463;28;20400;-90
2021/12/23 08:34:24;;;;;;;43.83;16.83;;;2.30;99.90;;;;;;5000652;28;20037;-91
2021/12/23 08:36:52;;;;;;;33.47;15.13;;;2.30;99.90;;;;;;4999566;28;20124;-90
2021/12/23 08:39:20;;;;;;;29.73;15.50;;;2.30;99.90;;;;;;4999612;28;20395;-89
2021/12/23 08:41:51;;;;;;;27.50;14.80;;;2.40;99.90;;;;;;5000058;28;20049;-89
2021/12/23 08:44:17;;;;;;;31.13;15.52;;;2.40;99.90;;;;;;4998720;28;20064;-91
2021/12/23 08:46:44;;;;;;;33.13;15.47;;;2.40;99.90;;;;;;5000669;28;20045;-90
2021/12/23 08:49:10;;;;;;;29.83;15.13;;;2.40;99.90;;;;;;5001432;28;20044;-90
2021/12/23 08:51:37;;;;;;;30.87;17.00;;;2.40;99.90;;;;;;5016027;28;20029;-91
2021/12/23 08:54:04;;;;;;;30.53;15.63;;;2.40;99.90;;;;;;5016928;28;20455;-91
2021/12/23 08:56:30;;;;;;;31.27;15.10;;;2.40;99.90;;;;;;5016686;28;20249;-91
2021/12/23 08:58:56;;;;;;;30.33;14.97;;;2.40;99.90;;;;;;4999391;28;20039;-90
2021/12/23 09:01:23;;;;;;;28.50;15.23;;;2.40;99.90;;;;;;4999115;28;20025;-91
2021/12/23 09:03:49;;;;;;;29.77;15.07;;;2.50;99.90;;;;;;5000561;28;20026;-90
2021/12/23 09:06:15;;;;;;;30.73;14.93;;;2.50;99.90;;;;;;5017700;28;20048;-91
2021/12/23 09:08:41;;;;;;;30.30;15.43;;;2.50;99.90;;;;;;5000645;28;20037;-91
2021/12/23 09:11:06;;;;;;;29.60;15.20;;;2.50;99.90;;;;;;4999253;28;20064;-90
2021/12/23 09:13:35;;;;;;;32.10;16.37;;;2.50;99.90;;;;;;5000001;28;20112;-90
2021/12/23 09:16:01;;;;;;;38.87;16.43;;;2.60;99.90;;;;;;4998692;28;20029;-90
2021/12/23 09:18:27;;;;;;;37.37;15.83;;;2.60;99.90;;;;;;4998571;28;20546;-90
2021/12/23 09:20:55;;;;;;;39.83;15.97;;;2.60;99.90;;;;;;4998712;28;20116;-90
2021/12/23 09:23:22;;;;;;;163.00;26.03;;;2.60;99.90;;;;;;4998799;28;20022;-91
2021/12/23 09:25:50;;;;;;;48.97;18.20;;;2.70;99.90;;;;;;4998680;28;20021;-91
2021/12/23 09:36:32;;;;;;;35.97;15.70;;;2.80;99.90;;;;;;5692308;23;20065;-86
2021/12/23 09:38:58;;;;;;;30.07;14.43;;;2.80;99.90;;;;;;4956401;28;20062;-86
2021/12/23 09:41:24;;;;;;;60.93;18.47;;;2.80;99.90;;;;;;4974870;28;20481;-87
2021/12/23 09:43:51;;;;;;;58.30;18.90;;;2.80;99.90;;;;;;4935984;29;20529;-86
2021/12/23 09:46:23;;;;;;;36.93;15.57;;;2.80;99.90;;;;;;4937693;29;20049;-87
2021/12/23 09:48:49;;;;;;;79.13;20.30;;;2.90;99.90;;;;;;4937563;29;20031;-86
2021/12/23 09:51:18;;;;;;;69.70;19.90;;;2.90;99.90;;;;;;4937581;29;20031;-86
2021/12/23 09:53:57;;;;;;;31.53;15.40;;;2.90;99.90;;;;;;4937651;29;20035;-86
2021/12/23 09:56:27;;;;;;;33.27;15.80;;;2.90;99.90;;;;;;4969630;28;20094;-86
2021/12/23 09:58:56;;;;;;;32.83;15.40;;;2.90;99.90;;;;;;4937382;29;20483;-86
2021/12/23 10:01:22;;;;;;;27.77;14.43;;;2.90;99.90;;;;;;4937490;29;20079;-86
2021/12/23 10:03:48;;;;;;;29.30;14.97;;;2.90;99.90;;;;;;4937304;29;20497;-86
2021/12/23 10:06:14;;;;;;;30.20;15.70;;;3.00;99.90;;;;;;4937348;29;20038;-87
2021/12/23 10:08:41;;;;;;;28.83;14.97;;;3.00;99.90;;;;;;4937418;29;20089;-87
2021/12/23 10:11:59;;;;;;;29.07;14.93;;;3.00;99.90;;;;;;4937391;29;20516;-86
2021/12/23 10:38:46;;;;;;;35.47;15.65;;;3.40;99.90;;;;;;4953644;29;20035;-86
2021/12/23 10:41:19;;;;;;;41.15;14.88;;;3.40;99.90;;;;;;4937826;29;20082;-86
2021/12/23 10:44:04;;;;;;;43.43;15.90;;;3.40;99.90;;;;;;4953437;29;20118;-87
2021/12/23 10:46:36;;;;;;;36.97;14.83;;;3.50;99.90;;;;;;4937276;29;20466;-87
2021/12/23 10:49:32;;;;;;;38.07;14.87;;;3.50;99.90;;;;;;4938747;29;20043;-87
2021/12/23 10:52:08;;;;;;;43.80;14.63;;;3.50;99.90;;;;;;4956951;29;20028;-87
2021/12/23 11:00:18;;;;;;;27.40;14.10;;;3.60;99.90;;;;;;4956516;29;20066;-86
2021/12/23 11:03:09;;;;;;;32.00;15.20;;;3.70;99.90;;;;;;4940442;29;20065;-86
2021/12/23 11:05:41;;;;;;;29.37;15.17;;;3.70;99.90;;;;;;4956034;28;20409;-86
2021/12/23 11:08:18;;;;;;;29.50;14.17;;;3.70;99.90;;;;;;4972268;28;20104;-87
2021/12/23 11:11:14;;;;;;;27.83;14.33;;;3.70;99.90;;;;;;4956285;29;20023;-86
2021/12/23 11:30:53;;;;;;;30.13;14.70;;;3.80;99.90;;;;;;4958125;29;20485;-86
2021/12/23 11:36:06;;;;;;;26.53;13.37;;;3.80;99.90;;;;;;4959420;29;20039;-86
2021/12/23 11:43:57;;;;;;;34.97;14.07;;;3.90;99.90;;;;;;4957044;28;20027;-86
2021/12/23 11:46:31;;;;;;;31.40;14.67;;;3.90;99.90;;;;;;4939520;29;20373;-86
2021/12/23 11:49:00;;;;;;;29.93;14.10;;;3.90;99.90;;;;;;4939634;29;20039;-86
2021/12/23 11:51:33;;;;;;;24.30;12.95;;;3.90;99.90;;;;;;4939821;29;20393;-85
2021/12/23 11:54:03;;;;;;;27.60;14.30;;;3.90;99.90;;;;;;4939749;29;20043;-86
2021/12/23 11:56:31;;;;;;;28.63;13.48;;;4.00;99.90;;;;;;4940381;29;20031;-86
2021/12/23 11:59:01;;;;;;;28.02;13.55;;;4.00;99.90;;;;;;4940341;29;20497;-85
2021/12/23 12:01:30;;;;;;;28.37;14.40;;;4.00;99.90;;;;;;4955661;28;20410;-86
2021/12/23 12:04:05;;;;;;;27.08;14.07;;;4.00;99.90;;;;;;4973409;28;20069;-86
2021/12/23 12:06:45;;;;;;;30.33;13.57;;;4.00;99.90;;;;;;4940855;29;20043;-87
2021/12/23 12:09:31;;;;;;;28.27;13.57;;;4.10;99.90;;;;;;4940833;29;20118;-86
2021/12/23 12:11:59;;;;;;;27.13;14.33;;;4.10;99.90;;;;;;4941756;29;20039;-86
2021/12/23 12:14:40;;;;;;;28.35;13.93;;;4.10;99.90;;;;;;4939189;29;20028;-86
2021/12/23 12:17:24;;;;;;;27.40;13.70;;;4.10;99.90;;;;;;4955315;29;20042;-86
2021/12/23 12:20:08;;;;;;;30.13;14.80;;;4.10;99.90;;;;;;4954687;29;20043;-86
2021/12/23 12:23:11;;;;;;;29.83;14.27;;;4.20;99.90;;;;;;4938937;29;20047;-86
2021/12/23 12:25:47;;;;;;;28.57;14.00;;;4.20;99.90;;;;;;4956322;28;20036;-86
2021/12/23 12:28:22;;;;;;;28.53;14.87;;;4.20;99.90;;;;;;4954445;29;20035;-86
2021/12/23 12:30:58;;;;;;;27.53;14.40;;;4.30;99.90;;;;;;4938230;29;20042;-86
2021/12/23 12:33:23;;;;;;;27.37;14.07;;;4.30;99.90;;;;;;4938190;28;20036;-86
2021/12/23 12:36:01;;;;;;;29.67;13.97;;;4.30;99.90;;;;;;4955093;29;20031;-86
2021/12/23 12:38:32;;;;;;;26.40;14.33;;;4.30;99.90;;;;;;4938102;29;20043;-86
2021/12/23 12:41:01;;;;;;;29.13;14.43;;;4.30;99.90;;;;;;4955490;29;20019;-86
2021/12/23 12:43:51;;;;;;;32.80;15.00;;;4.30;99.90;;;;;;4938203;28;20030;-86
2021/12/23 12:49:28;;;;;;;29.40;13.40;;;4.30;99.90;;;;;;4955237;29;19910;-86
2021/12/23 12:52:22;;;;;;;29.53;14.10;;;4.30;99.90;;;;;;4937935;29;20035;-87
2021/12/23 12:54:58;;;;;;;28.23;14.47;;;4.30;99.90;;;;;;4937765;29;20097;-87
2021/12/23 12:57:34;;;;;;;33.00;14.50;;;4.30;99.90;;;;;;4937772;29;20489;-87
2021/12/23 13:00:16;;;;;;;27.13;14.60;;;4.30;99.90;;;;;;4969561;28;20035;-87
2021/12/23 13:02:51;;;;;;;27.03;14.03;;;4.30;99.90;;;;;;4937707;29;20493;-87
2021/12/23 13:05:28;;;;;;;29.23;14.77;;;4.40;99.90;;;;;;4937548;29;20498;-87
2021/12/23 13:08:30;;;;;;;28.07;14.10;;;4.40;99.90;;;;;;4939972;29;20035;-87
2021/12/23 13:11:08;;;;;;;28.77;14.47;;;4.40;99.90;;;;;;4953815;29;20035;-86
2021/12/23 13:14:00;;;;;;;26.13;14.07;;;4.50;99.90;;;;;;4931472;28;20040;-87
2021/12/23 13:16:34;;;;;;;28.87;14.73;;;4.40;99.90;;;;;;4938378;29;20031;-86
2021/12/23 13:19:18;;;;;;;26.50;13.80;;;4.40;99.90;;;;;;4937009;29;20035;-86
2021/12/23 13:21:50;;;;;;;29.33;14.13;;;4.50;99.90;;;;;;4952866;29;20035;-87
2021/12/23 13:24:18;;;;;;;25.87;14.10;;;4.40;99.90;;;;;;4937234;29;20035;-86
2021/12/23 13:26:44;;;;;;;27.17;13.63;;;4.50;99.90;;;;;;4937318;29;20397;-86
2021/12/23 13:29:11;;;;;;;26.53;14.20;;;4.40;99.90;;;;;;4936637;29;20042;-87
2021/12/23 13:31:39;;;;;;;27.17;14.37;;;4.50;99.90;;;;;;4937059;29;20042;-87
2021/12/23 13:34:09;;;;;;;25.80;13.77;;;4.50;99.90;;;;;;4937030;29;20035;-86
2021/12/23 13:37:06;;;;;;;32.57;17.40;;;4.50;99.90;;;;;;4969027;28;20046;-86
2021/12/23 13:39:37;;;;;;;27.63;14.90;;;4.50;99.90;;;;;;4928814;29;20039;-88
2021/12/23 13:42:05;;;;;;;31.43;13.57;;;4.60;99.90;;;;;;4936880;29;20042;-87
2021/12/23 13:44:37;;;;;;;24.35;13.57;;;4.60;99.90;;;;;;4936884;29;20405;-87
2021/12/23 13:47:05;;;;;;;27.73;14.80;;;4.60;99.90;;;;;;4936993;29;20039;-87
2021/12/23 13:49:46;;;;;;;28.17;13.97;;;4.60;99.90;;;;;;4936460;29;20464;-87
2021/12/23 13:52:22;;;;;;;29.77;13.67;;;4.60;99.90;;;;;;4937079;29;20086;-87
2021/12/23 13:54:49;;;;;;;26.10;12.77;;;4.60;99.90;;;;;;4937021;29;20046;-88
2021/12/23 13:57:20;;;;;;;31.13;14.80;;;4.60;99.90;;;;;;4952892;28;20027;-87
2021/12/23 13:59:47;;;;;;;30.40;13.70;;;4.60;99.90;;;;;;4936374;29;20035;-87
2021/12/23 14:02:23;;;;;;;28.90;14.83;;;4.60;99.90;;;;;;4936711;29;20099;-87
2021/12/23 14:04:51;;;;;;;25.77;13.87;;;4.60;99.90;;;;;;4936797;29;20416;-87
2021/12/23 14:07:24;;;;;;;28.10;14.57;;;4.60;99.90;;;;;;4937048;29;20449;-87
2021/12/23 14:09:56;;;;;;;29.47;15.20;;;4.60;99.90;;;;;;4936465;29;20066;-87
2021/12/23 14:12:44;;;;;;;27.33;13.93;;;4.60;99.90;;;;;;4953928;29;20035;-87
2021/12/23 14:15:12;;;;;;;27.30;13.57;;;4.60;99.90;;;;;;4926612;29;20047;-87
2021/12/23 14:18:08;;;;;;;27.40;14.07;;;4.60;99.90;;;;;;4953622;29;20042;-88
2021/12/23 14:23:30;;;;;;;29.13;14.57;;;4.70;99.90;;;;;;4953125;28;20031;-86
2021/12/23 14:25:59;;;;;;;27.83;14.40;;;4.80;99.90;;;;;;4940427;29;20037;-87
2021/12/23 14:28:31;;;;;;;28.23;14.40;;;4.70;99.90;;;;;;4940425;29;20035;-87
2021/12/23 14:31:04;;;;;;;29.80;15.97;;;4.80;99.90;;;;;;4940764;29;20035;-87
2021/12/23 14:33:35;;;;;;;32.33;16.27;;;4.80;99.90;;;;;;4940319;28;20496;-87
2021/12/23 14:36:05;;;;;;;28.63;15.07;;;4.70;99.90;;;;;;4940998;29;20043;-87
2021/12/23 14:38:44;;;;;;;30.03;15.47;;;4.70;99.90;;;;;;4940164;29;20517;-87
2021/12/23 14:41:16;;;;;;;31.85;15.30;;;4.70;99.90;;;;;;4972326;28;20397;-88
2021/12/23 14:43:45;;;;;;;31.97;16.10;;;4.70;99.90;;;;;;4940095;29;20039;-87
2021/12/23 14:46:11;;;;;;;33.35;16.65;;;4.70;99.90;;;;;;4940158;29;20685;-87
2021/12/23 14:49:22;;;;;;;30.90;15.43;;;4.70;99.90;;;;;;4940072;29;20085;-87
2021/12/23 14:51:44;;;;;;;30.30;14.97;;;4.70;99.90;;;;;;4940590;29;20069;-85
2021/12/23 14:54:13;;;;;;;32.67;15.80;;;4.70;99.90;;;;;;4939890;29;20385;-86
2021/12/23 14:56:43;;;;;;;28.07;15.07;;;4.70;99.90;;;;;;4940026;29;20035;-85
2021/12/23 14:59:20;;;;;;;29.48;15.18;;;4.70;99.90;;;;;;4971483;28;20031;-86
2021/12/23 15:02:01;;;;;;;30.00;15.70;;;4.60;99.90;;;;;;4939828;29;20406;-86
2021/12/23 15:04:27;;;;;;;33.43;15.83;;;4.70;99.90;;;;;;4939644;29;20038;-86
2021/12/23 15:07:02;;;;;;;33.17;16.40;;;4.60;99.90;;;;;;4939825;29;20474;-86
2021/12/23 15:09:30;;;;;;;30.33;16.10;;;4.70;99.90;;;;;;4939141;29;20047;-86
2021/12/23 15:12:08;;;;;;;30.03;15.13;;;4.70;99.90;;;;;;4939539;29;20078;-86
2021/12/23 15:14:40;;;;;;;30.33;15.33;;;4.80;99.90;;;;;;4939467;29;20113;-86
2021/12/23 15:17:13;;;;;;;34.83;17.20;;;4.70;99.90;;;;;;4939637;29;20035;-85
2021/12/23 15:19:41;;;;;;;32.73;16.20;;;4.70;99.90;;;;;;4939035;29;20062;-86
2021/12/23 15:22:29;;;;;;;30.70;16.43;;;4.80;99.90;;;;;;4939369;29;20038;-86
2021/12/23 15:25:09;;;;;;;33.50;15.10;;;4.70;99.90;;;;;;4971429;28;20027;-86
2021/12/23 15:27:38;;;;;;;32.07;15.80;;;4.80;99.90;;;;;;4938883;29;20038;-86
2021/12/23 15:30:17;;;;;;;32.90;16.47;;;4.80;99.90;;;;;;4939400;29;20035;-87
2021/12/23 15:32:43;;;;;;;32.80;15.95;;;4.80;99.90;;;;;;4955406;29;20449;-86
2021/12/23 15:35:14;;;;;;;31.43;15.67;;;4.90;99.90;;;;;;4939287;29;20046;-86
2021/12/23 15:37:43;;;;;;;31.57;15.67;;;4.90;99.90;;;;;;5010247;23;20070;-89
2021/12/23 15:40:16;;;;;;;29.65;15.65;;;4.90;99.90;;;;;;4942899;28;20401;-89
2021/12/23 15:42:42;;;;;;;31.27;15.00;;;4.90;99.90;;;;;;4943119;28;20511;-88
2021/12/23 15:45:08;;;;;;;30.73;15.03;;;4.90;99.90;;;;;;4942840;28;20027;-89
2021/12/23 15:47:34;;;;;;;28.93;15.07;;;4.90;99.90;;;;;;4942831;28;20094;-88
2021/12/23 15:50:02;;;;;;;32.83;16.13;;;4.90;99.90;;;;;;4958787;28;20037;-88
2021/12/23 15:52:28;;;;;;;33.53;15.93;;;4.90;99.90;;;;;;4942385;28;20228;-89
2021/12/23 15:54:55;;;;;;;31.50;16.20;;;5.00;99.90;;;;;;4958773;28;20056;-88
2021/12/23 15:57:21;;;;;;;32.07;15.17;;;5.00;99.90;;;;;;4943231;28;20053;-89
2021/12/23 15:59:51;;;;;;;31.83;15.90;;;4.90;99.90;;;;;;4943039;28;20117;-88
2021/12/23 16:02:30;;;;;;;34.07;15.87;;;5.00;99.90;;;;;;4942969;28;20033;-88
2021/12/23 16:07:34;;;;;;;32.03;15.77;;;5.00;99.90;;;;;;4959071;28;20035;-90
2021/12/23 16:10:03;;;;;;;32.33;15.53;;;4.90;99.90;;;;;;4958872;28;20066;-89
2021/12/23 16:12:34;;;;;;;31.85;16.83;;;5.10;99.90;;;;;;4942586;28;20022;-89
2021/12/23 16:15:07;;;;;;;29.97;15.47;;;5.00;99.90;;;;;;4958651;28;20146;-89
2021/12/23 16:17:33;;;;;;;29.53;15.33;;;5.00;99.90;;;;;;4959415;28;20420;-89
2021/12/23 16:20:00;;;;;;;30.87;16.30;;;5.00;99.90;;;;;;4958913;28;20027;-89
2021/12/23 16:22:27;;;;;;;29.93;15.43;;;5.00;99.90;;;;;;4959300;28;20038;-89
2021/12/23 16:24:55;;;;;;;29.73;15.60;;;5.00;99.90;;;;;;4943370;28;20026;-88
2021/12/23 16:27:21;;;;;;;33.30;15.90;;;5.00;99.90;;;;;;4958831;28;20485;-89
2021/12/23 16:30:19;;;;;;;30.70;15.53;;;5.00;99.90;;;;;;4943153;28;20039;-89
2021/12/23 16:32:56;;;;;;;33.27;16.10;;;5.00;99.90;;;;;;4968793;28;20026;-89
2021/12/23 16:35:25;;;;;;;33.67;17.03;;;5.00;99.90;;;;;;4964556;28;20061;-88
2021/12/23 16:37:53;;;;;;;32.42;16.10;;;5.00;99.90;;;;;;4964468;28;20039;-89
2021/12/23 16:40:25;;;;;;;32.13;16.03;;;5.00;99.90;;;;;;4978832;28;20090;-89
2021/12/23 16:42:52;;;;;;;36.17;17.17;;;5.00;99.90;;;;;;4962691;28;20030;-89
2021/12/23 16:45:21;;;;;;;35.13;16.80;;;5.10;99.90;;;;;;4963075;28;20026;-88
2021/12/23 16:47:51;;;;;;;33.53;17.17;;;5.10;99.90;;;;;;4978079;28;20030;-89
2021/12/23 16:50:17;;;;;;;31.73;16.27;;;5.10;99.90;;;;;;4961971;28;20025;-88
2021/12/23 16:52:50;;;;;;;31.10;16.17;;;5.10;99.90;;;;;;4964110;28;20477;-88
2021/12/23 16:58:08;;;;;;;32.67;17.13;;;5.10;99.90;;;;;;4976490;28;20107;-90
2021/12/23 17:00:36;;;;;;;33.90;17.37;;;5.10;99.90;;;;;;4976975;28;20035;-90
2021/12/23 17:03:04;;;;;;;34.33;17.33;;;5.10;99.90;;;;;;4974706;28;20050;-89
2021/12/23 17:05:34;;;;;;;33.15;17.33;;;5.10;99.90;;;;;;4976615;28;20039;-90
2021/12/23 17:08:00;;;;;;;32.03;17.13;;;5.10;99.90;;;;;;4960392;28;20401;-89
2021/12/23 17:10:27;;;;;;;35.90;18.53;;;5.10;99.90;;;;;;4977569;28;20055;-88
2021/12/23 17:12:55;;;;;;;35.33;18.03;;;5.20;99.90;;;;;;4964652;28;20062;-88
2021/12/23 17:15:22;;;;;;;43.07;18.30;;;5.20;99.90;;;;;;4962221;28;20430;-89
2021/12/23 17:17:48;;;;;;;48.30;22.97;;;5.30;99.90;;;;;;4952857;28;20033;-89
2021/12/23 17:23:00;;;;;;;39.23;18.40;;;5.50;99.90;;;;;;4976394;28;20027;-90
2021/12/23 17:25:28;;;;;;;37.67;18.67;;;5.50;99.90;;;;;;4977434;28;20043;-88
2021/12/23 17:27:56;;;;;;;36.57;18.40;;;5.60;99.90;;;;;;4977445;28;20034;-89
2021/12/23 17:30:23;;;;;;;38.37;17.93;;;5.60;99.90;;;;;;4975515;28;20027;-89
2021/12/23 17:32:51;;;;;;;39.80;18.90;;;5.60;99.90;;;;;;4976599;28;20030;-89
2021/12/23 17:35:19;;;;;;;37.97;17.77;;;5.50;99.90;;;;;;4955955;28;20038;-88
2021/12/23 17:37:54;;;;;;;42.93;19.33;;;5.60;99.90;;;;;;4957807;28;20035;-89
2021/12/23 17:40:22;;;;;;;39.00;18.50;;;5.50;99.90;;;;;;4940587;28;20130;-89
2021/12/23 17:42:47;;;;;;;39.80;18.87;;;5.60;99.90;;;;;;4956565;28;20045;-90